sensor_id;sensor_type;location;lat;lon;timestamp;temperature;humidity
68485;DHT22;55472;50.060;21.960;2022-09-09T00:07:55;17.00;95.20
68485;DHT22;55472;50.060;21.960;2022-09-09T00:13:05;16.70;96.40
68485;DHT22;55472;50.060;21.960;2022-09-09T00:18:56;16.70;96.90
68485;DHT22;55472;50.060;21.960;2022-09-09T00:21:48;16.70;97.20
68485;DHT22;55472;50.060;21.960;2022-09-09T00:24:54;16.60;96.60
68485;DHT22;55472;50.060;21.960;2022-09-09T00:27:33;16.70;96.90
68485;DHT22;55472;50.060;21.960;2022-09-09T00:30:24;16.70;96.90
68485;DHT22;55472;50.060;21.960;2022-09-09T00:33:00;16.80;96.50
68485;DHT22;55472;50.060;21.960;2022-09-09T00:35:33;16.70;96.30
68485;DHT22;55472;50.060;21.960;2022-09-09T00:38:24;16.70;97.00
68485;DHT22;55472;50.060;21.960;2022-09-09T00:44:27;16.70;98.00
68485;DHT22;55472;50.060;21.960;2022-09-09T00:47:00;16.70;97.80
68485;DHT22;55472;50.060;21.960;2022-09-09T00:50:00;16.60;98.00
68485;DHT22;55472;50.060;21.960;2022-09-09T00:55:27;16.60;98.80
68485;DHT22;55472;50.060;21.960;2022-09-09T00:57:59;16.60;98.90
68485;DHT22;55472;50.060;21.960;2022-09-09T01:00:32;16.70;98.20
68485;DHT22;55472;50.060;21.960;2022-09-09T01:06:13;16.60;97.90
68485;DHT22;55472;50.060;21.960;2022-09-09T01:14:52;16.80;96.80
68485;DHT22;55472;50.060;21.960;2022-09-09T01:17:30;16.80;96.50
68485;DHT22;55472;50.060;21.960;2022-09-09T01:20:03;16.80;96.70
68485;DHT22;55472;50.060;21.960;2022-09-09T01:28:31;16.90;96.80
68485;DHT22;55472;50.060;21.960;2022-09-09T01:30:58;16.90;96.60
68485;DHT22;55472;50.060;21.960;2022-09-09T01:33:25;16.90;96.60
68485;DHT22;55472;50.060;21.960;2022-09-09T01:36:02;16.90;96.60
68485;DHT22;55472;50.060;21.960;2022-09-09T01:38:33;16.90;96.60
68485;DHT22;55472;50.060;21.960;2022-09-09T01:41:00;17.00;95.60
68485;DHT22;55472;50.060;21.960;2022-09-09T01:43:27;16.90;95.20
68485;DHT22;55472;50.060;21.960;2022-09-09T01:45:55;16.80;94.70
68485;DHT22;55472;50.060;21.960;2022-09-09T01:48:24;16.80;96.60
68485;DHT22;55472;50.060;21.960;2022-09-09T01:50:50;16.80;96.60
68485;DHT22;55472;50.060;21.960;2022-09-09T01:53:18;16.90;96.90
68485;DHT22;55472;50.060;21.960;2022-09-09T01:56:16;16.90;96.30
68485;DHT22;55472;50.060;21.960;2022-09-09T01:59:18;17.00;94.70
68485;DHT22;55472;50.060;21.960;2022-09-09T02:02:30;16.90;95.60
68485;DHT22;55472;50.060;21.960;2022-09-09T02:08:11;16.70;95.20
68485;DHT22;55472;50.060;21.960;2022-09-09T02:13:43;16.60;96.00
68485;DHT22;55472;50.060;21.960;2022-09-09T02:16:27;16.50;96.50
68485;DHT22;55472;50.060;21.960;2022-09-09T02:19:19;16.50;96.40
68485;DHT22;55472;50.060;21.960;2022-09-09T02:21:53;16.40;96.90
68485;DHT22;55472;50.060;21.960;2022-09-09T02:24:21;16.40;96.80
68485;DHT22;55472;50.060;21.960;2022-09-09T02:26:51;16.30;97.00
68485;DHT22;55472;50.060;21.960;2022-09-09T02:29:24;16.30;97.10
68485;DHT22;55472;50.060;21.960;2022-09-09T02:31:53;16.30;97.80
68485;DHT22;55472;50.060;21.960;2022-09-09T02:34:23;16.20;97.50
68485;DHT22;55472;50.060;21.960;2022-09-09T02:36:51;16.20;98.30
68485;DHT22;55472;50.060;21.960;2022-09-09T02:39:19;16.30;98.50
68485;DHT22;55472;50.060;21.960;2022-09-09T02:41:45;16.30;97.80
68485;DHT22;55472;50.060;21.960;2022-09-09T02:44:13;16.30;97.70
68485;DHT22;55472;50.060;21.960;2022-09-09T02:47:08;16.30;97.70
68485;DHT22;55472;50.060;21.960;2022-09-09T02:50:19;16.30;97.30
68485;DHT22;55472;50.060;21.960;2022-09-09T02:53:07;16.30;96.90
68485;DHT22;55472;50.060;21.960;2022-09-09T02:55:48;16.40;97.20
68485;DHT22;55472;50.060;21.960;2022-09-09T02:58:19;16.40;96.90
68485;DHT22;55472;50.060;21.960;2022-09-09T03:00:51;16.30;97.50
68485;DHT22;55472;50.060;21.960;2022-09-09T03:03:19;16.30;96.50
68485;DHT22;55472;50.060;21.960;2022-09-09T03:05:45;16.30;96.80
68485;DHT22;55472;50.060;21.960;2022-09-09T03:08:12;16.30;96.70
68485;DHT22;55472;50.060;21.960;2022-09-09T03:10:38;16.30;98.30
68485;DHT22;55472;50.060;21.960;2022-09-09T03:13:05;16.40;97.40
68485;DHT22;55472;50.060;21.960;2022-09-09T03:15:34;16.40;97.70
68485;DHT22;55472;50.060;21.960;2022-09-09T03:18:00;16.50;97.60
68485;DHT22;55472;50.060;21.960;2022-09-09T03:20:28;16.60;97.00
68485;DHT22;55472;50.060;21.960;2022-09-09T03:22:55;16.60;97.10
68485;DHT22;55472;50.060;21.960;2022-09-09T03:25:22;16.60;95.80
68485;DHT22;55472;50.060;21.960;2022-09-09T03:27:53;16.60;97.00
68485;DHT22;55472;50.060;21.960;2022-09-09T03:30:21;16.60;97.00
68485;DHT22;55472;50.060;21.960;2022-09-09T03:32:48;16.60;96.10
68485;DHT22;55472;50.060;21.960;2022-09-09T03:35:14;16.60;95.70
68485;DHT22;55472;50.060;21.960;2022-09-09T03:37:41;16.50;96.70
68485;DHT22;55472;50.060;21.960;2022-09-09T03:40:08;16.60;97.30
68485;DHT22;55472;50.060;21.960;2022-09-09T03:42:36;16.60;97.60
68485;DHT22;55472;50.060;21.960;2022-09-09T03:45:07;16.60;96.60
68485;DHT22;55472;50.060;21.960;2022-09-09T03:47:35;16.60;97.40
68485;DHT22;55472;50.060;21.960;2022-09-09T03:50:01;16.60;97.70
68485;DHT22;55472;50.060;21.960;2022-09-09T03:52:26;16.70;97.50
68485;DHT22;55472;50.060;21.960;2022-09-09T03:54:53;16.70;97.00
68485;DHT22;55472;50.060;21.960;2022-09-09T03:57:20;16.60;95.50
68485;DHT22;55472;50.060;21.960;2022-09-09T03:59:47;16.60;96.40
68485;DHT22;55472;50.060;21.960;2022-09-09T04:02:15;16.60;97.80
68485;DHT22;55472;50.060;21.960;2022-09-09T04:04:45;16.60;97.50
68485;DHT22;55472;50.060;21.960;2022-09-09T04:07:11;16.60;97.70
68485;DHT22;55472;50.060;21.960;2022-09-09T04:09:37;16.60;98.10
68485;DHT22;55472;50.060;21.960;2022-09-09T04:12:03;16.60;97.10
68485;DHT22;55472;50.060;21.960;2022-09-09T04:14:29;16.60;97.30
68485;DHT22;55472;50.060;21.960;2022-09-09T04:16:55;16.70;96.60
68485;DHT22;55472;50.060;21.960;2022-09-09T04:19:24;16.60;96.80
68485;DHT22;55472;50.060;21.960;2022-09-09T04:21:50;16.60;96.50
68485;DHT22;55472;50.060;21.960;2022-09-09T04:24:17;16.70;97.10
68485;DHT22;55472;50.060;21.960;2022-09-09T04:26:43;16.60;95.50
68485;DHT22;55472;50.060;21.960;2022-09-09T04:29:09;16.60;95.60
68485;DHT22;55472;50.060;21.960;2022-09-09T04:31:35;16.60;96.50
68485;DHT22;55472;50.060;21.960;2022-09-09T04:34:01;16.60;96.70
68485;DHT22;55472;50.060;21.960;2022-09-09T04:36:33;16.60;96.30
68485;DHT22;55472;50.060;21.960;2022-09-09T04:39:00;16.60;96.20
68485;DHT22;55472;50.060;21.960;2022-09-09T04:41:26;16.50;95.50
68485;DHT22;55472;50.060;21.960;2022-09-09T04:43:53;16.50;96.70
68485;DHT22;55472;50.060;21.960;2022-09-09T04:46:20;16.50;96.70
68485;DHT22;55472;50.060;21.960;2022-09-09T04:48:49;16.60;96.80
68485;DHT22;55472;50.060;21.960;2022-09-09T04:51:15;16.60;96.60
68485;DHT22;55472;50.060;21.960;2022-09-09T04:53:42;16.60;96.50
68485;DHT22;55472;50.060;21.960;2022-09-09T04:56:13;16.70;95.70
68485;DHT22;55472;50.060;21.960;2022-09-09T04:58:41;16.70;95.70
68485;DHT22;55472;50.060;21.960;2022-09-09T05:01:12;16.70;95.30
68485;DHT22;55472;50.060;21.960;2022-09-09T05:03:43;16.60;95.00
68485;DHT22;55472;50.060;21.960;2022-09-09T05:06:13;16.60;95.00
68485;DHT22;55472;50.060;21.960;2022-09-09T05:08:42;16.60;95.10
68485;DHT22;55472;50.060;21.960;2022-09-09T05:11:19;16.60;95.00
68485;DHT22;55472;50.060;21.960;2022-09-09T05:13:46;16.60;95.10
68485;DHT22;55472;50.060;21.960;2022-09-09T05:16:13;16.60;94.80
68485;DHT22;55472;50.060;21.960;2022-09-09T05:18:40;16.60;95.50
68485;DHT22;55472;50.060;21.960;2022-09-09T05:21:09;16.60;94.80
68485;DHT22;55472;50.060;21.960;2022-09-09T05:23:36;16.60;95.30
68485;DHT22;55472;50.060;21.960;2022-09-09T05:26:03;16.50;95.40
68485;DHT22;55472;50.060;21.960;2022-09-09T05:28:30;16.50;96.30
68485;DHT22;55472;50.060;21.960;2022-09-09T05:31:04;16.60;96.70
68485;DHT22;55472;50.060;21.960;2022-09-09T05:33:35;16.50;96.60
68485;DHT22;55472;50.060;21.960;2022-09-09T05:36:05;16.60;96.80
68485;DHT22;55472;50.060;21.960;2022-09-09T05:38:34;16.60;96.60
68485;DHT22;55472;50.060;21.960;2022-09-09T05:41:02;16.50;96.00
68485;DHT22;55472;50.060;21.960;2022-09-09T05:43:28;16.50;96.60
68485;DHT22;55472;50.060;21.960;2022-09-09T05:46:04;16.50;97.10
68485;DHT22;55472;50.060;21.960;2022-09-09T05:48:33;16.60;97.20
68485;DHT22;55472;50.060;21.960;2022-09-09T05:51:05;16.60;97.30
68485;DHT22;55472;50.060;21.960;2022-09-09T05:53:35;16.60;96.90
68485;DHT22;55472;50.060;21.960;2022-09-09T05:58:31;16.70;97.20
68485;DHT22;55472;50.060;21.960;2022-09-09T06:01:06;16.80;97.20
68485;DHT22;55472;50.060;21.960;2022-09-09T06:03:43;16.80;97.30
68485;DHT22;55472;50.060;21.960;2022-09-09T06:06:15;16.90;97.50
68485;DHT22;55472;50.060;21.960;2022-09-09T06:08:44;16.90;97.70
68485;DHT22;55472;50.060;21.960;2022-09-09T06:11:16;17.00;98.30
68485;DHT22;55472;50.060;21.960;2022-09-09T06:13:43;17.00;98.60
68485;DHT22;55472;50.060;21.960;2022-09-09T06:16:11;17.10;98.50
68485;DHT22;55472;50.060;21.960;2022-09-09T06:18:41;17.20;98.70
68485;DHT22;55472;50.060;21.960;2022-09-09T06:21:14;17.20;99.00
68485;DHT22;55472;50.060;21.960;2022-09-09T06:23:41;17.20;98.80
68485;DHT22;55472;50.060;21.960;2022-09-09T06:26:13;17.30;98.50
68485;DHT22;55472;50.060;21.960;2022-09-09T06:28:40;17.30;98.20
68485;DHT22;55472;50.060;21.960;2022-09-09T06:31:12;17.30;98.20
68485;DHT22;55472;50.060;21.960;2022-09-09T06:33:41;17.30;98.00
68485;DHT22;55472;50.060;21.960;2022-09-09T06:36:13;17.40;97.90
68485;DHT22;55472;50.060;21.960;2022-09-09T06:38:41;17.40;98.20
68485;DHT22;55472;50.060;21.960;2022-09-09T06:41:09;17.40;98.00
68485;DHT22;55472;50.060;21.960;2022-09-09T06:43:36;17.40;98.10
68485;DHT22;55472;50.060;21.960;2022-09-09T06:46:05;17.50;98.20
68485;DHT22;55472;50.060;21.960;2022-09-09T06:48:33;17.50;98.00
68485;DHT22;55472;50.060;21.960;2022-09-09T06:53:35;17.50;97.40
68485;DHT22;55472;50.060;21.960;2022-09-09T06:58:40;17.60;97.20
68485;DHT22;55472;50.060;21.960;2022-09-09T07:01:08;17.60;96.90
68485;DHT22;55472;50.060;21.960;2022-09-09T07:03:35;17.60;96.90
68485;DHT22;55472;50.060;21.960;2022-09-09T07:06:01;17.70;96.60
68485;DHT22;55472;50.060;21.960;2022-09-09T07:08:27;17.70;96.00
68485;DHT22;55472;50.060;21.960;2022-09-09T07:10:53;17.70;95.60
68485;DHT22;55472;50.060;21.960;2022-09-09T07:13:24;17.70;95.10
68485;DHT22;55472;50.060;21.960;2022-09-09T07:15:51;17.70;95.20
68485;DHT22;55472;50.060;21.960;2022-09-09T07:18:20;17.70;95.10
68485;DHT22;55472;50.060;21.960;2022-09-09T07:20:53;17.70;94.40
68485;DHT22;55472;50.060;21.960;2022-09-09T07:23:20;17.70;95.00
68485;DHT22;55472;50.060;21.960;2022-09-09T07:25:46;17.80;94.80
68485;DHT22;55472;50.060;21.960;2022-09-09T07:28:14;17.80;95.20
68485;DHT22;55472;50.060;21.960;2022-09-09T07:30:40;18.00;95.30
68485;DHT22;55472;50.060;21.960;2022-09-09T07:33:06;18.20;95.20
68485;DHT22;55472;50.060;21.960;2022-09-09T07:35:33;18.40;94.60
68485;DHT22;55472;50.060;21.960;2022-09-09T07:38:00;18.60;93.80
68485;DHT22;55472;50.060;21.960;2022-09-09T07:40:26;18.70;92.60
68485;DHT22;55472;50.060;21.960;2022-09-09T07:42:52;18.90;91.60
68485;DHT22;55472;50.060;21.960;2022-09-09T07:45:19;19.00;90.70
68485;DHT22;55472;50.060;21.960;2022-09-09T07:47:52;19.20;89.90
68485;DHT22;55472;50.060;21.960;2022-09-09T07:50:18;19.40;87.90
68485;DHT22;55472;50.060;21.960;2022-09-09T07:52:44;19.60;87.30
68485;DHT22;55472;50.060;21.960;2022-09-09T07:55:10;19.90;86.80
68485;DHT22;55472;50.060;21.960;2022-09-09T07:57:36;20.00;84.50
68485;DHT22;55472;50.060;21.960;2022-09-09T08:00:04;20.20;84.90
68485;DHT22;55472;50.060;21.960;2022-09-09T08:02:30;20.40;83.90
68485;DHT22;55472;50.060;21.960;2022-09-09T08:04:56;20.50;83.50
68485;DHT22;55472;50.060;21.960;2022-09-09T08:07:22;20.70;83.40
68485;DHT22;55472;50.060;21.960;2022-09-09T08:09:49;20.80;82.10
68485;DHT22;55472;50.060;21.960;2022-09-09T08:12:15;21.00;81.50
68485;DHT22;55472;50.060;21.960;2022-09-09T08:14:42;21.00;80.90
68485;DHT22;55472;50.060;21.960;2022-09-09T08:17:08;20.90;81.30
68485;DHT22;55472;50.060;21.960;2022-09-09T08:19:34;20.90;81.80
68485;DHT22;55472;50.060;21.960;2022-09-09T08:22:02;20.90;81.70
68485;DHT22;55472;50.060;21.960;2022-09-09T08:24:29;20.90;80.80
68485;DHT22;55472;50.060;21.960;2022-09-09T08:26:54;20.70;79.60
68485;DHT22;55472;50.060;21.960;2022-09-09T08:29:22;20.70;80.40
68485;DHT22;55472;50.060;21.960;2022-09-09T08:31:51;20.90;79.60
68485;DHT22;55472;50.060;21.960;2022-09-09T08:34:21;21.30;79.50
68485;DHT22;55472;50.060;21.960;2022-09-09T08:36:48;22.90;75.70
68485;DHT22;55472;50.060;21.960;2022-09-09T08:39:17;24.30;70.10
68485;DHT22;55472;50.060;21.960;2022-09-09T08:44:56;25.90;65.20
68485;DHT22;55472;50.060;21.960;2022-09-09T08:50:30;25.50;62.60
68485;DHT22;55472;50.060;21.960;2022-09-09T08:55:51;27.20;59.20
68485;DHT22;55472;50.060;21.960;2022-09-09T08:58:29;27.20;58.60
68485;DHT22;55472;50.060;21.960;2022-09-09T09:07:28;28.40;55.90
68485;DHT22;55472;50.060;21.960;2022-09-09T09:10:15;28.20;55.10
68485;DHT22;55472;50.060;21.960;2022-09-09T09:12:58;27.50;56.40
68485;DHT22;55472;50.060;21.960;2022-09-09T09:15:30;26.50;57.50
68485;DHT22;55472;50.060;21.960;2022-09-09T09:18:03;25.70;59.80
68485;DHT22;55472;50.060;21.960;2022-09-09T09:23:25;27.10;59.10
68485;DHT22;55472;50.060;21.960;2022-09-09T09:25:59;28.40;54.80
68485;DHT22;55472;50.060;21.960;2022-09-09T09:28:29;28.80;53.60
68485;DHT22;55472;50.060;21.960;2022-09-09T09:31:09;28.80;53.90
68485;DHT22;55472;50.060;21.960;2022-09-09T09:33:55;28.70;54.30
68485;DHT22;55472;50.060;21.960;2022-09-09T09:36:32;28.20;52.30
68485;DHT22;55472;50.060;21.960;2022-09-09T09:39:10;27.80;54.50
68485;DHT22;55472;50.060;21.960;2022-09-09T09:41:40;27.50;55.50
68485;DHT22;55472;50.060;21.960;2022-09-09T09:44:23;27.20;57.00
68485;DHT22;55472;50.060;21.960;2022-09-09T09:46:53;27.30;56.80
68485;DHT22;55472;50.060;21.960;2022-09-09T09:49:30;27.20;56.30
68485;DHT22;55472;50.060;21.960;2022-09-09T09:52:03;28.10;52.60
68485;DHT22;55472;50.060;21.960;2022-09-09T09:54:33;28.90;52.00
68485;DHT22;55472;50.060;21.960;2022-09-09T09:57:11;29.10;50.10
68485;DHT22;55472;50.060;21.960;2022-09-09T09:59:39;28.90;50.20
68485;DHT22;55472;50.060;21.960;2022-09-09T10:02:25;28.30;51.50
68485;DHT22;55472;50.060;21.960;2022-09-09T10:05:16;28.00;53.40
68485;DHT22;55472;50.060;21.960;2022-09-09T10:10:51;27.00;54.40
68485;DHT22;55472;50.060;21.960;2022-09-09T10:13:51;26.50;56.10
68485;DHT22;55472;50.060;21.960;2022-09-09T10:19:34;25.90;57.10
68485;DHT22;55472;50.060;21.960;2022-09-09T10:22:08;25.80;55.50
68485;DHT22;55472;50.060;21.960;2022-09-09T10:25:11;25.60;56.00
68485;DHT22;55472;50.060;21.960;2022-09-09T10:31:34;24.90;58.70
68485;DHT22;55472;50.060;21.960;2022-09-09T10:34:19;24.50;60.30
68485;DHT22;55472;50.060;21.960;2022-09-09T10:36:54;24.30;58.90
68485;DHT22;55472;50.060;21.960;2022-09-09T10:42:01;23.80;60.40
68485;DHT22;55472;50.060;21.960;2022-09-09T10:50:50;23.40;62.40
68485;DHT22;55472;50.060;21.960;2022-09-09T10:53:38;23.30;63.80
68485;DHT22;55472;50.060;21.960;2022-09-09T10:56:14;23.20;63.20
68485;DHT22;55472;50.060;21.960;2022-09-09T10:58:46;23.10;63.10
68485;DHT22;55472;50.060;21.960;2022-09-09T11:01:20;23.00;64.60
68485;DHT22;55472;50.060;21.960;2022-09-09T11:03:54;22.80;64.20
68485;DHT22;55472;50.060;21.960;2022-09-09T11:06:29;22.70;63.70
68485;DHT22;55472;50.060;21.960;2022-09-09T11:09:01;22.60;64.80
68485;DHT22;55472;50.060;21.960;2022-09-09T11:11:39;22.50;65.30
68485;DHT22;55472;50.060;21.960;2022-09-09T11:14:36;22.40;65.70
68485;DHT22;55472;50.060;21.960;2022-09-09T11:17:15;22.40;66.30
68485;DHT22;55472;50.060;21.960;2022-09-09T11:19:44;22.30;66.10
68485;DHT22;55472;50.060;21.960;2022-09-09T11:25:26;22.30;67.10
68485;DHT22;55472;50.060;21.960;2022-09-09T11:30:42;22.20;67.90
68485;DHT22;55472;50.060;21.960;2022-09-09T11:41:45;22.10;69.60
68485;DHT22;55472;50.060;21.960;2022-09-09T11:44:19;22.10;68.50
68485;DHT22;55472;50.060;21.960;2022-09-09T11:46:52;22.10;67.90
68485;DHT22;55472;50.060;21.960;2022-09-09T11:52:13;22.00;68.60
68485;DHT22;55472;50.060;21.960;2022-09-09T11:54:49;22.00;68.30
68485;DHT22;55472;50.060;21.960;2022-09-09T11:57:35;22.00;68.20
68485;DHT22;55472;50.060;21.960;2022-09-09T12:00:03;21.90;68.40
68485;DHT22;55472;50.060;21.960;2022-09-09T12:02:30;21.90;69.10
68485;DHT22;55472;50.060;21.960;2022-09-09T12:05:12;21.90;69.50
68485;DHT22;55472;50.060;21.960;2022-09-09T12:07:59;21.80;68.60
68485;DHT22;55472;50.060;21.960;2022-09-09T12:10:29;21.90;68.50
68485;DHT22;55472;50.060;21.960;2022-09-09T12:13:17;21.90;68.30
68485;DHT22;55472;50.060;21.960;2022-09-09T12:15:53;22.10;68.70
68485;DHT22;55472;50.060;21.960;2022-09-09T12:18:24;22.30;68.40
68485;DHT22;55472;50.060;21.960;2022-09-09T12:20:57;22.50;67.10
68485;DHT22;55472;50.060;21.960;2022-09-09T12:32:25;23.10;66.50
68485;DHT22;55472;50.060;21.960;2022-09-09T12:34:55;23.30;64.30
68485;DHT22;55472;50.060;21.960;2022-09-09T12:37:41;23.50;63.70
68485;DHT22;55472;50.060;21.960;2022-09-09T12:40:26;23.70;62.90
68485;DHT22;55472;50.060;21.960;2022-09-09T12:42:53;23.90;62.70
68485;DHT22;55472;50.060;21.960;2022-09-09T12:45:26;24.10;62.00
68485;DHT22;55472;50.060;21.960;2022-09-09T12:47:58;24.30;62.00
68485;DHT22;55472;50.060;21.960;2022-09-09T12:50:29;24.50;61.10
68485;DHT22;55472;50.060;21.960;2022-09-09T12:52:59;24.60;59.60
68485;DHT22;55472;50.060;21.960;2022-09-09T12:55:30;24.60;59.90
68485;DHT22;55472;50.060;21.960;2022-09-09T12:57:59;24.70;59.90
68485;DHT22;55472;50.060;21.960;2022-09-09T13:00:30;24.80;58.90
68485;DHT22;55472;50.060;21.960;2022-09-09T13:03:03;24.90;59.40
68485;DHT22;55472;50.060;21.960;2022-09-09T13:05:42;25.00;59.80
68485;DHT22;55472;50.060;21.960;2022-09-09T13:08:12;24.90;57.20
68485;DHT22;55472;50.060;21.960;2022-09-09T13:13:23;24.80;59.20
68485;DHT22;55472;50.060;21.960;2022-09-09T13:15:54;24.70;58.90
68485;DHT22;55472;50.060;21.960;2022-09-09T13:18:29;24.60;58.10
68485;DHT22;55472;50.060;21.960;2022-09-09T13:20:57;24.50;59.00
68485;DHT22;55472;50.060;21.960;2022-09-09T13:23:28;24.40;58.60
68485;DHT22;55472;50.060;21.960;2022-09-09T13:26:04;24.30;59.00
68485;DHT22;55472;50.060;21.960;2022-09-09T13:28:33;24.20;59.90
68485;DHT22;55472;50.060;21.960;2022-09-09T13:31:01;24.20;59.20
68485;DHT22;55472;50.060;21.960;2022-09-09T13:33:34;23.80;59.80
68485;DHT22;55472;50.060;21.960;2022-09-09T13:36:08;23.60;61.40
68485;DHT22;55472;50.060;21.960;2022-09-09T13:38:56;23.60;61.80
68485;DHT22;55472;50.060;21.960;2022-09-09T13:41:24;23.50;62.00
68485;DHT22;55472;50.060;21.960;2022-09-09T13:43:52;23.60;62.80
68485;DHT22;55472;50.060;21.960;2022-09-09T13:46:34;23.60;63.60
68485;DHT22;55472;50.060;21.960;2022-09-09T13:49:22;23.70;63.30
68485;DHT22;55472;50.060;21.960;2022-09-09T13:51:50;23.80;62.00
68485;DHT22;55472;50.060;21.960;2022-09-09T13:54:20;23.90;62.60
68485;DHT22;55472;50.060;21.960;2022-09-09T13:56:46;23.90;61.80
68485;DHT22;55472;50.060;21.960;2022-09-09T13:59:15;24.00;61.30
68485;DHT22;55472;50.060;21.960;2022-09-09T14:01:46;24.10;60.70
68485;DHT22;55472;50.060;21.960;2022-09-09T14:04:12;24.20;59.90
68485;DHT22;55472;50.060;21.960;2022-09-09T14:06:38;24.20;60.90
68485;DHT22;55472;50.060;21.960;2022-09-09T14:09:06;24.10;60.40
68485;DHT22;55472;50.060;21.960;2022-09-09T14:11:32;24.10;60.80
68485;DHT22;55472;50.060;21.960;2022-09-09T14:13:58;24.10;60.60
68485;DHT22;55472;50.060;21.960;2022-09-09T14:16:24;24.10;61.30
68485;DHT22;55472;50.060;21.960;2022-09-09T14:18:53;24.10;60.80
68485;DHT22;55472;50.060;21.960;2022-09-09T14:21:21;24.10;61.00
68485;DHT22;55472;50.060;21.960;2022-09-09T14:23:47;24.10;60.10
68485;DHT22;55472;50.060;21.960;2022-09-09T14:26:14;23.90;61.50
68485;DHT22;55472;50.060;21.960;2022-09-09T14:28:40;23.90;61.70
68485;DHT22;55472;50.060;21.960;2022-09-09T14:31:07;23.80;61.10
68485;DHT22;55472;50.060;21.960;2022-09-09T14:33:33;23.80;61.80
68485;DHT22;55472;50.060;21.960;2022-09-09T14:36:01;23.80;60.90
68485;DHT22;55472;50.060;21.960;2022-09-09T14:38:30;23.60;60.60
68485;DHT22;55472;50.060;21.960;2022-09-09T14:40:57;23.30;62.00
68485;DHT22;55472;50.060;21.960;2022-09-09T14:43:24;23.10;61.90
68485;DHT22;55472;50.060;21.960;2022-09-09T14:45:50;23.00;62.50
68485;DHT22;55472;50.060;21.960;2022-09-09T14:48:18;22.90;63.00
68485;DHT22;55472;50.060;21.960;2022-09-09T14:50:44;22.90;64.10
68485;DHT22;55472;50.060;21.960;2022-09-09T14:53:11;22.90;63.90
68485;DHT22;55472;50.060;21.960;2022-09-09T14:55:37;22.90;64.60
68485;DHT22;55472;50.060;21.960;2022-09-09T14:58:04;22.90;64.00
68485;DHT22;55472;50.060;21.960;2022-09-09T15:00:30;22.90;64.60
68485;DHT22;55472;50.060;21.960;2022-09-09T15:02:56;22.90;64.30
68485;DHT22;55472;50.060;21.960;2022-09-09T15:05:22;22.80;64.90
68485;DHT22;55472;50.060;21.960;2022-09-09T15:07:48;22.80;64.80
68485;DHT22;55472;50.060;21.960;2022-09-09T15:10:14;22.70;65.00
68485;DHT22;55472;50.060;21.960;2022-09-09T15:12:40;22.70;65.60
68485;DHT22;55472;50.060;21.960;2022-09-09T15:15:08;22.70;65.40
68485;DHT22;55472;50.060;21.960;2022-09-09T15:17:34;22.70;65.40
68485;DHT22;55472;50.060;21.960;2022-09-09T15:20:03;22.60;65.40
68485;DHT22;55472;50.060;21.960;2022-09-09T15:22:31;22.60;65.40
68485;DHT22;55472;50.060;21.960;2022-09-09T15:24:58;22.60;65.70
68485;DHT22;55472;50.060;21.960;2022-09-09T15:27:23;22.50;65.80
68485;DHT22;55472;50.060;21.960;2022-09-09T15:29:50;22.50;66.50
68485;DHT22;55472;50.060;21.960;2022-09-09T15:32:17;22.50;67.50
68485;DHT22;55472;50.060;21.960;2022-09-09T15:34:44;22.60;68.40
68485;DHT22;55472;50.060;21.960;2022-09-09T15:37:11;22.40;69.10
68485;DHT22;55472;50.060;21.960;2022-09-09T15:39:39;22.20;69.50
68485;DHT22;55472;50.060;21.960;2022-09-09T15:42:06;22.10;70.10
68485;DHT22;55472;50.060;21.960;2022-09-09T15:44:41;21.90;70.60
68485;DHT22;55472;50.060;21.960;2022-09-09T15:47:10;21.80;71.10
68485;DHT22;55472;50.060;21.960;2022-09-09T15:49:38;21.60;71.80
68485;DHT22;55472;50.060;21.960;2022-09-09T15:52:04;21.30;72.80
68485;DHT22;55472;50.060;21.960;2022-09-09T15:54:33;21.30;73.30
68485;DHT22;55472;50.060;21.960;2022-09-09T15:57:03;21.10;73.50
68485;DHT22;55472;50.060;21.960;2022-09-09T15:59:30;21.00;74.00
68485;DHT22;55472;50.060;21.960;2022-09-09T16:01:57;21.00;74.10
68485;DHT22;55472;50.060;21.960;2022-09-09T16:04:26;20.80;74.30
68485;DHT22;55472;50.060;21.960;2022-09-09T16:06:56;20.70;74.80
68485;DHT22;55472;50.060;21.960;2022-09-09T16:09:27;20.70;75.20
68485;DHT22;55472;50.060;21.960;2022-09-09T16:11:56;20.60;75.40
68485;DHT22;55472;50.060;21.960;2022-09-09T16:14:24;20.50;75.80
68485;DHT22;55472;50.060;21.960;2022-09-09T16:16:53;20.40;76.60
68485;DHT22;55472;50.060;21.960;2022-09-09T16:19:19;20.30;76.90
68485;DHT22;55472;50.060;21.960;2022-09-09T16:21:47;20.20;77.10
68485;DHT22;55472;50.060;21.960;2022-09-09T16:24:17;20.00;77.50
68485;DHT22;55472;50.060;21.960;2022-09-09T16:26:46;19.90;78.00
68485;DHT22;55472;50.060;21.960;2022-09-09T16:29:15;19.70;78.40
68485;DHT22;55472;50.060;21.960;2022-09-09T16:31:43;19.60;79.00
68485;DHT22;55472;50.060;21.960;2022-09-09T16:34:09;19.60;79.30
68485;DHT22;55472;50.060;21.960;2022-09-09T16:36:41;19.60;79.40
68485;DHT22;55472;50.060;21.960;2022-09-09T16:39:10;19.60;79.90
68485;DHT22;55472;50.060;21.960;2022-09-09T16:41:38;19.50;79.60
68485;DHT22;55472;50.060;21.960;2022-09-09T16:44:07;19.50;79.30
68485;DHT22;55472;50.060;21.960;2022-09-09T16:46:40;19.40;79.80
68485;DHT22;55472;50.060;21.960;2022-09-09T16:49:10;19.20;80.10
68485;DHT22;55472;50.060;21.960;2022-09-09T16:51:46;19.10;80.50
68485;DHT22;55472;50.060;21.960;2022-09-09T16:54:14;19.00;80.90
68485;DHT22;55472;50.060;21.960;2022-09-09T16:56:43;18.90;81.40
68485;DHT22;55472;50.060;21.960;2022-09-09T16:59:13;18.80;81.50
68485;DHT22;55472;50.060;21.960;2022-09-09T17:01:41;18.80;81.90
68485;DHT22;55472;50.060;21.960;2022-09-09T17:04:20;18.70;82.00
68485;DHT22;55472;50.060;21.960;2022-09-09T17:06:51;18.70;82.10
68485;DHT22;55472;50.060;21.960;2022-09-09T17:09:19;18.50;82.50
68485;DHT22;55472;50.060;21.960;2022-09-09T17:11:47;18.50;83.20
68485;DHT22;55472;50.060;21.960;2022-09-09T17:14:15;18.50;83.00
68485;DHT22;55472;50.060;21.960;2022-09-09T17:16:46;18.50;83.00
68485;DHT22;55472;50.060;21.960;2022-09-09T17:19:18;18.40;83.50
68485;DHT22;55472;50.060;21.960;2022-09-09T17:21:46;18.30;84.00
68485;DHT22;55472;50.060;21.960;2022-09-09T17:24:12;18.40;83.70
68485;DHT22;55472;50.060;21.960;2022-09-09T17:26:38;18.40;83.70
68485;DHT22;55472;50.060;21.960;2022-09-09T17:29:05;18.30;83.30
68485;DHT22;55472;50.060;21.960;2022-09-09T17:31:31;18.20;83.70
68485;DHT22;55472;50.060;21.960;2022-09-09T17:33:59;18.10;84.20